createdAt,value
2023-02-19T00:03:06.104Z,79.65
2023-02-19T00:08:08.176Z,79.18
2023-02-19T00:13:10.156Z,79.42
2023-02-19T00:18:12.146Z,79.13
2023-02-19T00:23:14.139Z,78.79
2023-02-19T00:28:16.195Z,79.46
2023-02-19T00:33:19.067Z,79.42
2023-02-19T00:38:21.032Z,79.13
2023-02-19T00:43:23.099Z,78.80
2023-02-19T00:48:25.110Z,78.75
2023-02-19T00:53:27.125Z,78.82
2023-02-19T00:58:29.128Z,78.93
2023-02-19T01:03:31.261Z,78.64
2023-02-19T01:08:33.944Z,78.65
2023-02-19T01:13:36.687Z,79.08
2023-02-19T01:18:38.755Z,79.13
2023-02-19T01:23:41.447Z,78.29
2023-02-19T01:28:44.450Z,79.05
2023-02-19T01:33:47.292Z,78.73
2023-02-19T01:38:50.055Z,78.87
2023-02-19T01:44:18.513Z,78.94
2023-02-19T01:49:30.697Z,78.64
2023-02-19T01:54:36.976Z,78.70
2023-02-19T01:59:39.616Z,78.75
2023-02-19T02:04:42.237Z,78.54
2023-02-19T02:10:05.678Z,78.79
2023-02-19T02:15:09.009Z,78.87
2023-02-19T02:20:20.313Z,78.26
2023-02-19T02:25:39.484Z,78.53
2023-02-19T02:30:50.490Z,78.68
2023-02-19T02:36:07.714Z,78.73
2023-02-19T02:41:10.798Z,78.11
2023-02-19T02:46:20.996Z,78.12
2023-02-19T02:51:31.293Z,78.03
2023-02-19T02:56:35.006Z,78.31
2023-02-19T03:02:11.817Z,78.50
2023-02-19T03:07:14.095Z,78.35
2023-02-19T03:12:38.376Z,78.39
2023-02-19T03:18:05.218Z,77.66
2023-02-19T03:23:11.697Z,77.89
2023-02-19T03:28:17.990Z,78.20
2023-02-19T03:33:27.534Z,78.94
2023-02-19T03:38:37.955Z,78.92
2023-02-19T03:43:52.908Z,79.03
2023-02-19T03:49:01.825Z,78.85
2023-02-19T03:54:10.757Z,79.47
2023-02-19T03:59:33.528Z,79.19
2023-02-19T04:04:40.275Z,78.47
2023-02-19T04:09:47.867Z,79.02
2023-02-19T04:14:55.310Z,79.71
2023-02-19T04:20:01.421Z,79.58
2023-02-19T04:25:04.322Z,79.52
2023-02-19T04:30:08.776Z,79.65
2023-02-19T04:35:11.428Z,79.62
2023-02-19T04:40:13.583Z,79.81
2023-02-19T04:45:17.644Z,80.37
2023-02-19T04:50:19.797Z,79.85
2023-02-19T04:55:22.482Z,79.69
2023-02-19T05:00:27.715Z,79.74
2023-02-19T05:05:32.549Z,80.46
2023-02-19T05:10:35.187Z,80.40
2023-02-19T05:15:40.538Z,80.95
2023-02-19T05:20:47.072Z,79.90
2023-02-19T05:25:49.885Z,80.19
2023-02-19T05:30:53.698Z,80.58
2023-02-19T05:35:56.428Z,80.53
2023-02-19T05:41:08.780Z,80.21
2023-02-19T05:46:13.877Z,80.21
2023-02-19T05:51:18.200Z,80.23
2023-02-19T05:56:26.701Z,80.44
2023-02-19T06:01:30.314Z,80.67
2023-02-19T06:06:32.466Z,80.44
2023-02-19T06:11:35.420Z,80.08
2023-02-19T06:16:38.071Z,80.16
2023-02-19T06:21:40.284Z,80.06
2023-02-19T06:26:44.059Z,80.18
2023-02-19T06:31:46.998Z,80.35
2023-02-19T06:36:50.017Z,80.78
2023-02-19T06:41:56.244Z,80.41
2023-02-19T06:46:58.336Z,80.61
2023-02-19T06:52:01.017Z,80.37
2023-02-19T06:57:03.669Z,80.57
2023-02-19T07:02:05.945Z,80.66
2023-02-19T07:07:12.322Z,80.25
2023-02-19T07:12:14.896Z,80.67
2023-02-19T07:17:17.609Z,80.96
2023-02-19T07:22:20.249Z,80.16
2023-02-19T07:27:23.380Z,80.30
2023-02-19T07:32:26.170Z,80.36
2023-02-19T07:37:31.469Z,80.36
2023-02-19T07:42:33.828Z,80.42
2023-02-19T07:47:36.000Z,81.06
2023-02-19T07:52:38.387Z,81.47
2023-02-19T07:57:40.466Z,81.13
2023-02-19T08:03:01.002Z,81.69
2023-02-19T08:08:08.555Z,82.07
2023-02-19T08:13:23.147Z,82.29
2023-02-19T08:18:29.185Z,81.87
2023-02-19T08:23:31.308Z,83.12
2023-02-19T08:28:33.952Z,83.04
2023-02-19T08:33:39.571Z,82.56
2023-02-19T08:38:41.874Z,83.17
2023-02-19T08:43:45.267Z,83.14
2023-02-19T08:48:49.078Z,83.97
2023-02-19T08:53:51.725Z,83.84
2023-02-19T08:58:54.411Z,84.32
2023-02-19T09:03:56.592Z,83.71
2023-02-19T09:08:59.301Z,84.42
2023-02-19T09:14:02.543Z,84.19
2023-02-19T09:19:05.396Z,83.72
2023-02-19T09:24:09.072Z,83.58
2023-02-19T09:29:11.624Z,83.42
2023-02-19T09:34:13.865Z,83.46
2023-02-19T09:39:16.202Z,83.82
2023-02-19T09:44:36.369Z,83.80
2023-02-19T09:49:41.710Z,84.24
2023-02-19T09:54:45.785Z,84.61
2023-02-19T10:00:10.637Z,84.58
2023-02-19T10:05:17.242Z,85.15
2023-02-19T10:10:29.885Z,85.91
2023-02-19T10:16:00.991Z,86.84
2023-02-19T10:21:06.024Z,87.85
2023-02-19T10:26:15.558Z,88.20
2023-02-19T10:31:23.822Z,88.11
2023-02-19T10:36:32.113Z,88.72
2023-02-19T10:41:44.022Z,87.66
2023-02-19T10:46:50.991Z,87.67
2023-02-19T10:51:58.391Z,87.13
2023-02-19T10:57:35.032Z,87.70
2023-02-19T11:02:39.525Z,87.41
2023-02-19T11:08:00.253Z,87.12
2023-02-19T11:13:08.426Z,86.65
2023-02-19T11:18:13.609Z,86.77
2023-02-19T11:23:19.960Z,86.97
2023-02-19T11:28:39.231Z,87.11
2023-02-19T11:34:00.784Z,87.06
2023-02-19T11:39:18.485Z,86.64
2023-02-19T11:44:47.041Z,86.43
2023-02-19T11:49:50.353Z,86.63
2023-02-19T11:55:02.174Z,85.90
2023-02-19T12:00:27.719Z,86.28
2023-02-19T12:05:35.591Z,85.24
2023-02-19T12:10:44.408Z,85.24
2023-02-19T12:15:46.629Z,84.18
2023-02-19T12:21:28.433Z,84.21
2023-02-19T12:27:06.318Z,83.38
2023-02-19T12:32:27.998Z,82.47
2023-02-19T12:37:43.233Z,82.87
2023-02-19T12:43:03.824Z,82.16
2023-02-19T12:48:16.537Z,81.69
2023-02-19T12:53:35.749Z,82.86
2023-02-19T12:58:51.331Z,82.63
2023-02-19T13:04:12.732Z,83.16
2023-02-19T13:09:41.922Z,82.81
2023-02-19T13:14:51.693Z,83.13
2023-02-19T13:20:01.803Z,82.38
2023-02-19T13:25:07.791Z,81.88
2023-02-19T13:30:39.366Z,81.78
2023-02-19T13:36:06.462Z,81.53
2023-02-19T13:41:27.043Z,81.58
2023-02-19T13:46:41.565Z,81.20
2023-02-19T13:51:53.892Z,82.15
2023-02-19T13:57:30.452Z,82.34
2023-02-19T14:02:36.238Z,82.69
2023-02-19T14:07:53.579Z,82.63
2023-02-19T14:13:03.014Z,82.08
2023-02-19T14:18:45.770Z,81.57
2023-02-19T14:23:55.042Z,81.45
2023-02-19T14:29:01.028Z,81.86
2023-02-19T14:34:19.575Z,81.68
2023-02-19T14:39:34.172Z,81.63
2023-02-19T14:44:49.479Z,81.28
2023-02-19T14:50:18.411Z,80.76
2023-02-19T14:55:35.708Z,80.76
2023-02-19T15:00:41.059Z,80.30
2023-02-19T15:05:47.910Z,79.96
2023-02-19T15:10:51.882Z,79.67
2023-02-19T15:15:56.323Z,79.27
2023-02-19T15:21:03.760Z,79.13
2023-02-19T15:26:23.115Z,78.68
2023-02-19T15:31:27.848Z,78.09
2023-02-19T15:36:35.370Z,77.66
2023-02-19T15:41:39.098Z,77.53
2023-02-19T15:46:43.972Z,77.15
2023-02-19T15:52:00.507Z,76.60
2023-02-19T15:57:08.540Z,76.37
2023-02-19T16:02:15.520Z,75.66
2023-02-19T16:07:32.655Z,75.38
2023-02-19T16:12:35.875Z,75.25
2023-02-19T16:17:38.853Z,74.97
2023-02-19T16:22:43.756Z,74.48
2023-02-19T16:27:46.962Z,74.67
2023-02-19T16:32:50.006Z,74.35
2023-02-19T16:38:00.860Z,74.80
2023-02-19T16:43:07.336Z,74.54
2023-02-19T16:48:10.908Z,74.67
2023-02-19T16:53:26.245Z,74.54
2023-02-19T16:58:29.470Z,74.41
2023-02-19T17:03:32.717Z,74.11
2023-02-19T17:08:38.889Z,74.86
2023-02-19T17:13:42.688Z,74.38
2023-02-19T17:18:45.870Z,74.11
2023-02-19T17:23:48.773Z,73.91
2023-02-19T17:28:51.791Z,74.11
2023-02-19T17:33:55.543Z,74.33
2023-02-19T17:39:03.841Z,74.72
2023-02-19T17:44:07.247Z,74.99
2023-02-19T17:49:15.625Z,74.29
2023-02-19T17:54:28.488Z,74.55
2023-02-19T17:59:32.385Z,74.95
2023-02-19T18:04:37.014Z,74.15
2023-02-19T18:09:41.838Z,74.33
2023-02-19T18:14:48.452Z,74.60
2023-02-19T18:19:54.794Z,74.83
2023-02-19T18:24:58.928Z,74.00
2023-02-19T18:30:02.257Z,74.35
2023-02-19T18:35:05.564Z,73.95
2023-02-19T18:40:10.801Z,74.36
2023-02-19T18:45:15.523Z,74.62
2023-02-19T18:50:20.634Z,74.38
2023-02-19T18:55:26.458Z,74.78
2023-02-19T19:00:30.601Z,74.68
2023-02-19T19:05:36.636Z,74.66
2023-02-19T19:10:40.667Z,74.21
2023-02-19T19:15:46.125Z,74.31
2023-02-19T19:20:52.938Z,74.56
2023-02-19T19:25:57.193Z,74.79
2023-02-19T19:31:01.546Z,74.52
2023-02-19T19:36:06.262Z,74.77
2023-02-19T19:41:12.140Z,74.02
2023-02-19T19:46:22.111Z,74.88
2023-02-19T19:51:25.542Z,74.67
2023-02-19T19:56:29.337Z,74.79
2023-02-19T20:01:33.776Z,74.62
2023-02-19T20:06:37.023Z,74.59
2023-02-19T20:11:54.779Z,75.15
2023-02-19T20:17:00.542Z,74.63
2023-02-19T20:22:03.595Z,74.48
2023-02-19T20:27:06.683Z,74.23
2023-02-19T20:32:15.850Z,74.21
2023-02-19T20:37:19.075Z,74.60
2023-02-19T20:42:23.037Z,74.59
2023-02-19T20:47:26.978Z,74.99
2023-02-19T20:52:30.488Z,74.74
2023-02-19T20:57:33.341Z,74.84
2023-02-19T21:02:36.848Z,75.35
2023-02-19T21:07:40.513Z,75.03
2023-02-19T21:12:43.554Z,75.58
2023-02-19T21:17:49.632Z,75.25
2023-02-19T21:22:54.937Z,74.96
2023-02-19T21:28:00.909Z,75.25
2023-02-19T21:33:04.683Z,75.90
2023-02-19T21:38:09.460Z,75.94
2023-02-19T21:43:14.155Z,76.17
2023-02-19T21:48:18.113Z,75.25
2023-02-19T21:53:21.528Z,75.87
2023-02-19T21:58:25.224Z,76.17
2023-02-19T22:03:28.466Z,75.62
2023-02-19T22:08:30.394Z,75.15
2023-02-19T22:13:32.519Z,76.47
2023-02-19T22:18:34.956Z,76.48
2023-02-19T22:23:37.179Z,76.21
2023-02-19T22:28:39.765Z,76.50
2023-02-19T22:33:41.892Z,76.55
2023-02-19T22:38:44.407Z,77.13
2023-02-19T22:43:47.434Z,76.92
2023-02-19T22:48:51.223Z,77.11
2023-02-19T22:53:56.934Z,76.90
2023-02-19T22:58:59.416Z,77.98
2023-02-19T23:04:02.360Z,77.39
2023-02-19T23:09:10.533Z,76.88
2023-02-19T23:14:16.088Z,77.57
2023-02-19T23:19:18.255Z,77.62
2023-02-19T23:24:21.316Z,77.17
2023-02-19T23:29:26.491Z,78.35
2023-02-19T23:34:29.237Z,77.25
2023-02-19T23:39:31.356Z,78.15
2023-02-19T23:44:34.258Z,77.07
2023-02-19T23:49:36.438Z,77.25
2023-02-19T23:54:39.799Z,77.45
2023-02-19T23:59:41.932Z,77.01
